This is the latest recevied weather packets stored in our database for station/object OE7BJT-13. If no packets are shown the sender has not sent any weather packets the latest 10 day(s).
| Time | Temp. | Humidity | Pressure | Rain* | Wind** | Luminosity | Snow |
|---|---|---|---|---|---|---|---|
| 1777322301 | 11.11° C | 71% | 1018 hPa | - | - | - | - |
| 1777321696 | 11.67° C | 69% | 1018 hPa | - | - | - | - |
| 1777321090 | 11.67° C | 65% | 1018 hPa | - | - | - | - |
| 1777320484 | 12.22° C | 64% | 1018 hPa | - | - | - | - |
| 1777319879 | 12.22° C | 65% | 1018 hPa | - | - | - | - |
| 1777319273 | 12.22° C | 64% | 1018 hPa | - | - | - | - |
| 1777318668 | 13.33° C | 55% | 1018 hPa | - | - | - | - |
| 1777318062 | 12.78° C | 57% | 1018 hPa | - | - | - | - |
| 1777316851 | 13.89° C | 54% | 1018 hPa | - | - | - | - |
| 1777316245 | 13.89° C | 54% | 1018 hPa | - | - | - | - |
| 1777315640 | 13.89° C | 51% | 1018 hPa | - | - | - | - |
| 1777315034 | 14.44° C | 48% | 1018 hPa | - | - | - | - |
| 1777314429 | 16.11° C | 42% | 1018 hPa | - | - | - | - |
| 1777313823 | 15° C | 47% | 1018 hPa | - | - | - | - |
| 1777312612 | 16.67° C | 41% | 1018 hPa | - | - | - | - |
| 1777312006 | 17.22° C | 39% | 1018 hPa | - | - | - | - |
| 1777311401 | 17.22° C | 39% | 1018 hPa | - | - | - | - |
| 1777310189 | 17.78° C | 39% | 1018 hPa | - | - | - | - |
| 1777309584 | 18.33° C | 38% | 1017 hPa | - | - | - | - |
| 1777308978 | 18.89° C | 37% | 1017 hPa | - | - | - | - |
| 1777308373 | 18.89° C | 38% | 1017 hPa | - | - | - | - |
| 1777307767 | 18.89° C | 38% | 1017 hPa | - | - | - | - |
| 1777307161 | 20° C | 35% | 1017 hPa | - | - | - | - |
| 1777305950 | 20° C | 36% | 1017 hPa | - | - | - | - |
| 1777303528 | 19.44° C | 37% | 1017 hPa | - | - | - | - |
* Rain since midnight (hover to see other rain measurements)
** Current wind speed in m/s (hover to see current wind gust speed)